Time;durP1;ratioP1;P1;durP2;ratioP2;P2;SDS_P1;SDS_P2;PMS_P1;PMS_P2;Temp;Humidity;BMP_temperature;BMP_pressure;BME280_temperature;BME280_humidity;BME280_pressure;Samples;Min_cycle;Max_cycle;Signal;HPM_P1;HPM_P2
2023/12/05 00:00:34;;;;;;;17.00;6.63;;;2.30;99.90;;;;;;4969847;28;20034;-63
2023/12/05 00:03:00;;;;;;;14.20;6.57;;;2.30;99.90;;;;;;4970270;28;20045;-62
2023/12/05 00:05:25;;;;;;;18.50;7.43;;;2.60;99.90;;;;;;4969802;28;20384;-64
2023/12/05 00:07:51;;;;;;;19.85;8.02;;;2.50;99.90;;;;;;4970022;28;20730;-63
2023/12/05 00:10:17;;;;;;;21.30;8.57;;;2.50;99.90;;;;;;4970111;28;20029;-63
2023/12/05 00:12:42;;;;;;;19.77;8.23;;;2.40;99.90;;;;;;4969410;28;20695;-63
2023/12/05 00:15:08;;;;;;;16.33;8.55;;;2.40;99.90;;;;;;4970243;28;20234;-63
2023/12/05 00:17:34;;;;;;;19.45;9.07;;;2.40;99.90;;;;;;4969542;28;20031;-63
2023/12/05 00:20:00;;;;;;;22.58;8.98;;;2.30;99.90;;;;;;4970218;28;20067;-63
2023/12/05 00:22:27;;;;;;;24.10;9.60;;;2.40;99.90;;;;;;4969115;28;20694;-64
2023/12/05 00:24:52;;;;;;;21.58;9.38;;;2.30;99.90;;;;;;4964872;28;20063;-63
2023/12/05 00:27:18;;;;;;;22.02;9.27;;;2.40;99.90;;;;;;4962176;28;20395;-64
2023/12/05 00:29:44;;;;;;;25.40;10.00;;;2.30;99.90;;;;;;4955302;28;20616;-63
2023/12/05 00:32:10;;;;;;;21.70;9.15;;;2.30;99.90;;;;;;4951378;28;20035;-63
2023/12/05 00:34:36;;;;;;;21.48;9.32;;;2.30;99.90;;;;;;4950262;28;20121;-63
2023/12/05 00:37:03;;;;;;;23.92;9.90;;;2.30;99.90;;;;;;4955642;28;20399;-63
2023/12/05 00:39:28;;;;;;;23.15;10.00;;;2.30;99.90;;;;;;4949804;28;20036;-63
2023/12/05 00:41:54;;;;;;;20.83;9.10;;;2.40;99.90;;;;;;4956177;28;20042;-63
2023/12/05 00:44:20;;;;;;;23.85;9.68;;;2.40;99.90;;;;;;4950609;28;20050;-63
2023/12/05 00:46:45;;;;;;;20.88;8.75;;;2.40;99.90;;;;;;4956916;28;20038;-64
2023/12/05 00:49:11;;;;;;;20.08;8.50;;;2.50;99.90;;;;;;4931914;29;20063;-63
2023/12/05 00:51:37;;;;;;;20.55;8.60;;;2.50;99.90;;;;;;4959719;28;20045;-64
2023/12/05 00:54:02;;;;;;;24.38;9.27;;;2.50;99.90;;;;;;4954054;28;20166;-63
2023/12/05 00:56:28;;;;;;;21.55;8.80;;;2.50;99.90;;;;;;4949903;28;20122;-64
2023/12/05 00:58:54;;;;;;;22.13;9.38;;;2.50;99.90;;;;;;4952678;28;20061;-63
2023/12/05 01:01:19;;;;;;;23.00;9.48;;;2.40;99.90;;;;;;4958922;28;20604;-63
2023/12/05 01:03:45;;;;;;;20.42;8.82;;;2.40;99.90;;;;;;4949836;28;20032;-64
2023/12/05 01:06:11;;;;;;;18.73;8.52;;;2.40;99.90;;;;;;4950463;28;20098;-64
2023/12/05 01:08:37;;;;;;;20.20;8.48;;;2.40;99.90;;;;;;4949494;29;20369;-63
2023/12/05 01:11:03;;;;;;;25.42;9.98;;;2.30;99.90;;;;;;4952879;28;20082;-63
2023/12/05 01:13:28;;;;;;;20.15;9.02;;;2.30;99.90;;;;;;4968900;28;20058;-65
2023/12/05 01:15:54;;;;;;;23.23;9.23;;;2.20;99.90;;;;;;4967063;28;20364;-63
2023/12/05 01:18:19;;;;;;;23.45;9.55;;;2.20;99.90;;;;;;4969387;28;20026;-63
2023/12/05 01:20:45;;;;;;;22.33;9.60;;;2.30;99.90;;;;;;4956139;28;20028;-64
2023/12/05 01:23:11;;;;;;;22.92;9.38;;;2.30;99.90;;;;;;4959711;28;20173;-63
2023/12/05 01:25:36;;;;;;;22.10;9.00;;;2.30;99.90;;;;;;4962546;28;20063;-63
2023/12/05 01:28:02;;;;;;;22.70;9.38;;;2.30;99.90;;;;;;4967691;28;20030;-63
2023/12/05 01:30:28;;;;;;;23.55;9.73;;;2.20;99.90;;;;;;4953553;28;20043;-64
2023/12/05 01:32:54;;;;;;;21.60;9.73;;;2.20;99.90;;;;;;4969218;28;20058;-63
2023/12/05 01:35:20;;;;;;;20.10;8.75;;;2.30;99.90;;;;;;4958605;28;20027;-63
2023/12/05 01:37:48;;;;;;;22.55;8.75;;;2.40;99.90;;;;;;4956833;28;20476;-63
2023/12/05 01:40:13;;;;;;;19.05;8.07;;;2.40;99.90;;;;;;4952182;28;20031;-63
2023/12/05 01:42:39;;;;;;;22.00;8.35;;;2.50;99.90;;;;;;4956028;28;20110;-62
2023/12/05 01:45:07;;;;;;;17.27;8.00;;;2.50;99.90;;;;;;4951379;28;20067;-63
2023/12/05 01:47:41;;;;;;;19.33;7.50;;;2.50;99.90;;;;;;4949855;28;20031;-63
2023/12/05 01:50:11;;;;;;;18.38;7.05;;;2.60;99.90;;;;;;4933373;28;20421;-63
2023/12/05 01:52:46;;;;;;;17.85;7.75;;;2.70;99.90;;;;;;4949518;28;20130;-63
2023/12/05 01:55:12;;;;;;;15.85;7.13;;;2.80;99.90;;;;;;4955046;28;20059;-62
2023/12/05 01:57:38;;;;;;;19.08;7.95;;;2.80;99.90;;;;;;4953131;29;20197;-63
2023/12/05 02:00:05;;;;;;;21.10;8.18;;;2.80;99.90;;;;;;4958658;28;20134;-62
2023/12/05 02:02:31;;;;;;;15.95;7.15;;;2.80;99.90;;;;;;4953186;28;20503;-64
2023/12/05 02:04:56;;;;;;;21.52;7.78;;;2.80;99.90;;;;;;4953016;28;20480;-63
2023/12/05 02:07:23;;;;;;;18.13;7.32;;;2.90;99.90;;;;;;4955956;28;20072;-63
2023/12/05 02:09:49;;;;;;;21.38;8.10;;;2.90;99.90;;;;;;4953910;28;20038;-62
2023/12/05 02:12:14;;;;;;;17.35;7.15;;;2.90;99.90;;;;;;4960164;28;20073;-63
2023/12/05 02:14:42;;;;;;;20.92;7.40;;;2.90;99.90;;;;;;4956801;28;20043;-62
2023/12/05 02:17:32;;;;;;;15.30;6.57;;;2.90;99.90;;;;;;4954192;28;20031;-63
2023/12/05 02:20:06;;;;;;;15.57;5.95;;;2.90;99.90;;;;;;4953347;28;20035;-62
2023/12/05 02:23:02;;;;;;;16.15;5.95;;;3.00;99.90;;;;;;4953047;28;20028;-64
2023/12/05 02:25:55;;;;;;;15.45;7.00;;;3.10;99.90;;;;;;4961772;28;20047;-63
2023/12/05 02:28:22;;;;;;;15.10;5.95;;;3.00;99.90;;;;;;4965490;28;20585;-62
2023/12/05 02:30:47;;;;;;;15.45;6.82;;;3.10;99.90;;;;;;4961593;28;20367;-63
2023/12/05 02:33:13;;;;;;;15.32;6.95;;;3.10;99.90;;;;;;4957726;28;20043;-63
2023/12/05 02:35:38;;;;;;;15.88;6.82;;;3.20;99.90;;;;;;4951948;29;20027;-62
2023/12/05 02:38:45;;;;;;;16.83;6.60;;;3.20;99.90;;;;;;4961285;28;20030;-62
2023/12/05 02:41:10;;;;;;;16.35;7.18;;;3.10;99.90;;;;;;4912181;29;20047;-63
2023/12/05 02:44:02;;;;;;;15.02;7.00;;;3.20;99.90;;;;;;4949206;28;20055;-63
2023/12/05 02:46:28;;;;;;;18.73;7.57;;;3.20;99.90;;;;;;4949470;28;20134;-62
2023/12/05 02:48:56;;;;;;;18.27;8.07;;;3.10;99.90;;;;;;4952163;28;20162;-62
2023/12/05 02:51:21;;;;;;;18.02;8.15;;;3.10;99.90;;;;;;4951677;28;20035;-62
2023/12/05 02:53:47;;;;;;;18.55;8.18;;;3.10;99.90;;;;;;4952084;29;20044;-62
2023/12/05 02:56:13;;;;;;;13.25;5.35;;;3.10;99.90;;;;;;4951314;29;20650;-63
2023/12/05 02:58:38;;;;;;;15.23;6.22;;;3.20;99.90;;;;;;4951884;29;20031;-62
2023/12/05 03:01:04;;;;;;;12.07;5.53;;;3.30;99.90;;;;;;4953044;28;20453;-63
2023/12/05 03:03:30;;;;;;;14.98;5.90;;;3.20;99.90;;;;;;4935662;29;20086;-63
2023/12/05 03:05:55;;;;;;;14.88;5.97;;;3.20;99.90;;;;;;4952657;28;20027;-63
2023/12/05 03:08:21;;;;;;;13.85;5.88;;;3.20;99.90;;;;;;4956775;28;20392;-62
2023/12/05 03:10:47;;;;;;;14.05;5.38;;;3.20;99.90;;;;;;4961543;28;20027;-63
2023/12/05 03:13:12;;;;;;;15.25;6.78;;;3.20;99.90;;;;;;4952663;28;20046;-62
2023/12/05 03:15:38;;;;;;;13.57;6.57;;;3.10;99.90;;;;;;4951182;28;20043;-63
2023/12/05 03:18:04;;;;;;;14.15;6.05;;;3.10;99.90;;;;;;4954294;28;20075;-62
2023/12/05 03:20:30;;;;;;;13.85;5.95;;;3.10;99.90;;;;;;4969026;28;20031;-62
2023/12/05 03:22:55;;;;;;;14.95;6.50;;;3.10;99.90;;;;;;4961400;28;20023;-62
2023/12/05 03:25:21;;;;;;;15.50;6.63;;;3.10;99.90;;;;;;4960775;28;20054;-63
2023/12/05 03:27:46;;;;;;;19.45;7.28;;;3.10;99.90;;;;;;4970120;28;20035;-63
2023/12/05 03:30:12;;;;;;;14.63;6.85;;;3.10;99.90;;;;;;4966437;28;20081;-62
2023/12/05 03:32:38;;;;;;;15.15;6.63;;;3.10;99.90;;;;;;4969571;28;20441;-63
2023/12/05 03:35:04;;;;;;;16.45;6.82;;;3.00;99.90;;;;;;4970919;28;20019;-61
2023/12/05 03:37:29;;;;;;;16.52;6.78;;;3.00;99.90;;;;;;4974837;28;20034;-61
2023/12/05 03:39:55;;;;;;;18.05;7.43;;;3.00;99.90;;;;;;4980127;28;20030;-62
2023/12/05 03:42:21;;;;;;;15.02;7.03;;;3.00;99.90;;;;;;4976773;28;21484;-62
2023/12/05 03:44:46;;;;;;;17.80;7.60;;;2.90;99.90;;;;;;4969232;28;20035;-61
2023/12/05 03:47:12;;;;;;;19.88;7.75;;;2.80;99.90;;;;;;4970545;28;20110;-62
2023/12/05 03:49:37;;;;;;;19.58;7.55;;;2.60;99.90;;;;;;4970177;28;20038;-63
2023/12/05 03:52:04;;;;;;;20.40;7.80;;;2.50;99.90;;;;;;4970389;28;20023;-62
2023/12/05 03:54:29;;;;;;;18.52;7.32;;;2.50;99.90;;;;;;4970955;28;20074;-61
2023/12/05 03:56:55;;;;;;;18.30;8.15;;;2.40;99.90;;;;;;4969046;28;20038;-61
2023/12/05 03:59:20;;;;;;;17.75;7.32;;;2.40;99.90;;;;;;4970461;28;20041;-61
2023/12/05 04:01:46;;;;;;;17.85;7.45;;;2.40;99.90;;;;;;4969534;28;20085;-62
2023/12/05 04:04:12;;;;;;;15.98;6.72;;;2.60;99.90;;;;;;4970432;28;20041;-62
2023/12/05 04:06:38;;;;;;;17.50;7.15;;;2.70;99.90;;;;;;4970002;28;20294;-62
2023/12/05 04:09:06;;;;;;;16.55;6.95;;;2.70;99.90;;;;;;4969850;28;20427;-62
2023/12/05 04:11:33;;;;;;;17.40;7.45;;;2.60;99.90;;;;;;4969862;28;20475;-61
2023/12/05 04:13:59;;;;;;;16.38;6.97;;;2.60;99.90;;;;;;4969537;28;20050;-61
2023/12/05 04:16:26;;;;;;;16.67;7.05;;;2.50;99.90;;;;;;4969633;28;20027;-61
2023/12/05 04:18:52;;;;;;;21.17;7.80;;;2.40;99.90;;;;;;4966250;28;20031;-62
2023/12/05 04:21:19;;;;;;;18.77;7.78;;;2.40;99.90;;;;;;4970103;28;20042;-60
2023/12/05 04:23:45;;;;;;;20.10;7.88;;;2.40;99.90;;;;;;4968413;28;20391;-61
2023/12/05 04:26:18;;;;;;;19.63;6.38;;;2.50;99.90;;;;;;4968069;28;20129;-61
2023/12/05 04:28:44;;;;;;;15.68;7.07;;;2.50;99.90;;;;;;4959725;28;20741;-61
2023/12/05 04:31:11;;;;;;;15.63;6.60;;;2.60;99.90;;;;;;4952464;28;20122;-61
2023/12/05 04:33:40;;;;;;;15.07;6.43;;;2.60;99.90;;;;;;4950409;28;20038;-62
2023/12/05 04:36:07;;;;;;;12.68;5.68;;;2.70;99.90;;;;;;4950968;28;20023;-62
2023/12/05 04:38:37;;;;;;;14.70;6.07;;;2.70;99.90;;;;;;4951092;28;20062;-62
2023/12/05 04:41:03;;;;;;;16.60;6.13;;;2.70;99.90;;;;;;4950354;28;20034;-62
2023/12/05 04:43:30;;;;;;;14.07;5.50;;;2.70;99.90;;;;;;4950905;28;20040;-61
2023/12/05 04:45:56;;;;;;;17.35;6.20;;;2.60;99.90;;;;;;4951301;28;20383;-61
2023/12/05 04:48:22;;;;;;;12.95;5.78;;;2.50;99.90;;;;;;4948354;28;20034;-62
2023/12/05 04:50:48;;;;;;;16.92;5.95;;;2.40;99.90;;;;;;4947067;28;20039;-62
2023/12/05 04:53:13;;;;;;;13.95;5.97;;;2.30;99.90;;;;;;4950575;28;20054;-62
2023/12/05 04:55:39;;;;;;;16.52;6.78;;;2.20;99.90;;;;;;4949364;28;20039;-64
2023/12/05 04:58:05;;;;;;;13.55;5.88;;;2.20;99.90;;;;;;4948672;28;20043;-62
2023/12/05 05:00:31;;;;;;;14.93;6.53;;;2.20;99.90;;;;;;4939928;28;20106;-63
2023/12/05 05:02:57;;;;;;;16.52;6.50;;;2.10;99.90;;;;;;4953576;28;20031;-63
2023/12/05 05:05:23;;;;;;;15.93;6.10;;;2.00;99.90;;;;;;4960185;28;20027;-63
2023/12/05 05:07:48;;;;;;;16.50;5.88;;;2.00;99.90;;;;;;4962851;28;20122;-62
2023/12/05 05:10:14;;;;;;;15.80;6.63;;;2.00;99.90;;;;;;4950764;28;20082;-62
2023/12/05 05:12:40;;;;;;;14.80;6.07;;;1.90;99.90;;;;;;4960033;28;20032;-62
2023/12/05 05:15:06;;;;;;;14.77;6.25;;;1.90;99.90;;;;;;4952143;28;20070;-62
2023/12/05 05:17:32;;;;;;;16.58;6.80;;;1.90;99.90;;;;;;4948939;28;20118;-64
2023/12/05 05:19:58;;;;;;;17.67;6.93;;;1.70;99.90;;;;;;4949108;28;20659;-64
2023/12/05 05:22:23;;;;;;;17.80;8.18;;;1.70;99.90;;;;;;4956770;28;20027;-64
2023/12/05 05:24:49;;;;;;;21.92;9.32;;;1.70;99.90;;;;;;4955991;28;20353;-63
2023/12/05 05:27:14;;;;;;;19.92;8.68;;;1.70;99.90;;;;;;4962463;28;20054;-63
2023/12/05 05:29:40;;;;;;;18.15;8.10;;;1.60;99.90;;;;;;4968951;28;20113;-63
2023/12/05 05:32:06;;;;;;;36.22;13.68;;;1.40;99.90;;;;;;4971963;28;20474;-64
2023/12/05 05:34:31;;;;;;;22.65;9.60;;;1.30;99.90;;;;;;4971803;28;20518;-63
2023/12/05 05:36:57;;;;;;;32.40;12.55;;;1.30;99.90;;;;;;4959143;28;20035;-62
2023/12/05 05:39:22;;;;;;;23.52;9.65;;;1.30;99.90;;;;;;4972058;28;20115;-64
2023/12/05 05:41:48;;;;;;;20.00;8.52;;;1.20;99.90;;;;;;4972128;28;20035;-64
2023/12/05 05:44:14;;;;;;;23.00;8.82;;;1.20;99.90;;;;;;4970531;28;20041;-62
2023/12/05 05:46:39;;;;;;;63.20;8.65;;;1.20;99.90;;;;;;4972102;28;20443;-62
2023/12/05 05:49:05;;;;;;;21.02;7.55;;;1.20;99.90;;;;;;4973819;28;20089;-62
2023/12/05 05:51:31;;;;;;;20.08;8.38;;;1.00;99.90;;;;;;4970593;28;20113;-62
2023/12/05 05:53:58;;;;;;;20.65;8.00;;;0.90;99.90;;;;;;4967957;28;20038;-64
2023/12/05 05:56:24;;;;;;;19.15;8.02;;;0.80;99.90;;;;;;4971690;28;20043;-63
2023/12/05 05:58:49;;;;;;;20.30;7.43;;;0.80;99.90;;;;;;4970630;28;20034;-63
2023/12/05 06:01:15;;;;;;;18.08;7.25;;;0.80;99.90;;;;;;4971907;28;20031;-62
2023/12/05 06:03:41;;;;;;;19.65;7.97;;;0.80;99.90;;;;;;4971020;28;20035;-63
2023/12/05 06:06:07;;;;;;;28.55;7.63;;;0.70;99.90;;;;;;4959114;28;20109;-62
2023/12/05 06:08:33;;;;;;;25.00;9.38;;;0.70;99.90;;;;;;4971848;28;20030;-62
2023/12/05 06:10:58;;;;;;;35.17;13.68;;;0.60;99.90;;;;;;4971504;28;20448;-62
2023/12/05 06:13:24;;;;;;;31.73;11.82;;;0.60;99.90;;;;;;4972041;28;20031;-62
2023/12/05 06:15:49;;;;;;;28.63;10.90;;;0.60;99.90;;;;;;4957645;28;20046;-62
2023/12/05 06:18:15;;;;;;;29.70;10.82;;;0.70;99.90;;;;;;4971639;28;20046;-62
2023/12/05 06:20:42;;;;;;;31.13;12.07;;;0.70;99.90;;;;;;4973753;28;20031;-63
2023/12/05 06:23:08;;;;;;;28.02;12.40;;;0.70;99.90;;;;;;4970415;28;20492;-62
2023/12/05 06:25:34;;;;;;;23.13;9.73;;;0.60;99.90;;;;;;4950989;28;20074;-63
2023/12/05 06:28:00;;;;;;;23.58;8.55;;;0.60;99.90;;;;;;4969932;28;20042;-62
2023/12/05 06:30:26;;;;;;;26.77;10.15;;;0.60;99.90;;;;;;4970974;28;20038;-64
2023/12/05 06:32:51;;;;;;;25.40;11.27;;;0.60;99.90;;;;;;4970047;28;20030;-64
2023/12/05 06:35:17;;;;;;;26.30;10.85;;;0.50;99.90;;;;;;4970636;28;20041;-63
2023/12/05 06:37:43;;;;;;;29.33;11.05;;;0.50;99.90;;;;;;4971353;28;20063;-63
2023/12/05 06:40:09;;;;;;;26.73;11.95;;;0.50;99.90;;;;;;4969870;28;20102;-62
2023/12/05 06:42:35;;;;;;;22.70;9.30;;;0.50;99.90;;;;;;4952561;28;20029;-62
2023/12/05 06:45:01;;;;;;;19.40;7.72;;;0.50;99.90;;;;;;4969339;28;20050;-63
2023/12/05 06:47:27;;;;;;;17.85;7.10;;;0.60;99.90;;;;;;4969149;28;20407;-62
2023/12/05 06:49:53;;;;;;;18.13;7.40;;;0.70;99.90;;;;;;4967208;28;20038;-62
2023/12/05 06:52:19;;;;;;;11.27;4.93;;;0.90;99.90;;;;;;4970749;28;20034;-62
2023/12/05 06:54:45;;;;;;;12.73;5.18;;;1.10;99.90;;;;;;4968290;28;20039;-62
2023/12/05 06:57:11;;;;;;;11.82;5.10;;;1.20;99.90;;;;;;4952616;28;21003;-61
2023/12/05 06:59:38;;;;;;;12.25;5.00;;;1.30;99.90;;;;;;4966378;28;20170;-64
2023/12/05 07:02:04;;;;;;;11.00;4.28;;;1.30;99.90;;;;;;4969315;28;20034;-63
2023/12/05 07:04:30;;;;;;;14.98;4.57;;;1.50;99.90;;;;;;4969314;28;20035;-64
2023/12/05 07:06:56;;;;;;;8.80;4.10;;;1.60;99.90;;;;;;4970341;28;20460;-65
2023/12/05 07:09:22;;;;;;;10.73;4.25;;;1.70;99.90;;;;;;4979569;28;20035;-64
2023/12/05 07:11:48;;;;;;;9.05;3.70;;;1.80;99.90;;;;;;4976803;28;20037;-67
2023/12/05 07:14:13;;;;;;;9.57;3.75;;;2.00;99.90;;;;;;4971854;28;20035;-63
2023/12/05 07:16:39;;;;;;;8.90;4.07;;;2.10;99.90;;;;;;4970453;28;20169;-64
2023/12/05 07:19:05;;;;;;;8.57;3.45;;;2.20;99.90;;;;;;4970581;28;20110;-62
2023/12/05 07:21:30;;;;;;;12.02;3.58;;;2.30;99.90;;;;;;4968561;28;20476;-63
2023/12/05 07:23:56;;;;;;;10.68;4.30;;;2.40;99.90;;;;;;4969198;28;20043;-64
2023/12/05 07:26:22;;;;;;;12.02;4.75;;;2.40;99.90;;;;;;4969985;28;20708;-63
2023/12/05 07:28:48;;;;;;;8.88;3.67;;;2.30;99.90;;;;;;4970194;28;20512;-66
2023/12/05 07:31:13;;;;;;;8.02;3.00;;;2.20;99.90;;;;;;4964534;28;20113;-63
2023/12/05 07:33:39;;;;;;;6.90;2.78;;;2.30;99.90;;;;;;4970314;28;20035;-63
2023/12/05 07:36:05;;;;;;;6.43;2.92;;;2.40;99.90;;;;;;4969831;28;20183;-63
2023/12/05 07:38:32;;;;;;;5.88;2.33;;;2.50;99.90;;;;;;4969222;28;20094;-64
2023/12/05 07:40:58;;;;;;;6.63;2.70;;;2.80;99.90;;;;;;4968531;28;20042;-63
2023/12/05 07:43:24;;;;;;;6.10;2.70;;;2.80;99.90;;;;;;4969725;28;20045;-63
2023/12/05 07:45:50;;;;;;;7.88;2.78;;;2.80;99.90;;;;;;4963707;28;20027;-65
2023/12/05 07:48:15;;;;;;;6.25;2.83;;;2.80;99.90;;;;;;4956289;28;20069;-63
2023/12/05 07:50:41;;;;;;;7.50;3.65;;;2.80;99.90;;;;;;4970416;28;20439;-62
2023/12/05 07:53:07;;;;;;;11.82;3.00;;;2.70;99.90;;;;;;4968359;28;20026;-61
2023/12/05 07:55:32;;;;;;;8.23;2.65;;;2.60;99.90;;;;;;4970513;28;20034;-61
2023/12/05 07:57:58;;;;;;;7.22;2.50;;;2.70;99.90;;;;;;4970847;28;20391;-62
2023/12/05 08:00:24;;;;;;;7.40;2.63;;;2.70;99.90;;;;;;4972609;28;20031;-61
2023/12/05 08:02:49;;;;;;;7.90;2.58;;;2.70;99.90;;;;;;4969264;28;20026;-62
2023/12/05 08:05:15;;;;;;;8.20;2.80;;;2.80;99.90;;;;;;4969036;28;20031;-62
2023/12/05 08:07:41;;;;;;;7.57;3.17;;;2.80;99.90;;;;;;4969895;28;20711;-63
2023/12/05 08:10:08;;;;;;;8.65;3.10;;;2.80;99.90;;;;;;4969098;28;20448;-62
2023/12/05 08:12:34;;;;;;;6.90;3.30;;;2.80;99.90;;;;;;4969987;28;20031;-63
2023/12/05 08:15:00;;;;;;;10.00;3.47;;;2.90;99.90;;;;;;4968505;28;20030;-63
2023/12/05 08:17:26;;;;;;;7.07;3.10;;;3.10;99.90;;;;;;4969776;28;20113;-63
2023/12/05 08:19:52;;;;;;;5.75;2.58;;;3.20;99.90;;;;;;4969342;28;20109;-63
2023/12/05 08:22:18;;;;;;;6.80;2.53;;;3.30;99.90;;;;;;4968895;28;20066;-63
2023/12/05 08:24:44;;;;;;;8.73;2.70;;;3.60;99.90;;;;;;4967695;28;20579;-63
2023/12/05 08:27:09;;;;;;;7.60;2.90;;;3.80;99.90;;;;;;4968896;28;20034;-62
2023/12/05 08:29:35;;;;;;;10.77;2.70;;;4.00;99.90;;;;;;4969729;28;20030;-63
2023/12/05 08:32:01;;;;;;;7.28;2.72;;;4.00;99.90;;;;;;4968890;28;20558;-64
2023/12/05 08:34:26;;;;;;;5.68;2.25;;;4.00;99.90;;;;;;4969661;28;20069;-64
2023/12/05 08:36:52;;;;;;;6.38;2.70;;;4.00;99.90;;;;;;4975457;28;20054;-64
2023/12/05 08:39:17;;;;;;;5.20;2.22;;;3.90;99.90;;;;;;4968751;28;20034;-62
2023/12/05 08:41:43;;;;;;;4.05;2.15;;;4.00;99.90;;;;;;4969080;28;20062;-63
2023/12/05 08:44:09;;;;;;;8.23;2.40;;;4.10;99.90;;;;;;4968172;28;20041;-63
2023/12/05 08:46:35;;;;;;;6.50;1.77;;;4.10;99.90;;;;;;4969004;28;20109;-64
2023/12/05 08:49:01;;;;;;;5.57;1.95;;;4.30;99.90;;;;;;4968148;28;20089;-65
2023/12/05 08:51:26;;;;;;;5.40;2.00;;;4.30;99.90;;;;;;4969836;28;20039;-65
2023/12/05 08:53:52;;;;;;;5.20;1.95;;;4.40;99.90;;;;;;4969057;28;20046;-65
2023/12/05 08:56:18;;;;;;;5.95;1.90;;;4.50;99.90;;;;;;4967919;28;20114;-65
2023/12/05 08:58:43;;;;;;;6.53;2.13;;;4.70;99.90;;;;;;4969167;28;20421;-64
2023/12/05 09:01:12;;;;;;;7.20;2.17;;;4.70;99.90;;;;;;4967643;28;20480;-64
2023/12/05 09:03:37;;;;;;;6.55;1.48;;;4.80;99.90;;;;;;4969368;28;20035;-64
2023/12/05 09:06:03;;;;;;;7.22;2.22;;;4.90;99.90;;;;;;4971316;28;20065;-63
2023/12/05 09:08:30;;;;;;;5.10;2.03;;;5.00;99.90;;;;;;4973288;28;20376;-64
2023/12/05 09:10:57;;;;;;;4.82;1.67;;;5.10;99.90;;;;;;4972858;28;20031;-65
2023/12/05 09:13:23;;;;;;;5.88;1.90;;;5.20;99.90;;;;;;4972948;28;20062;-65
2023/12/05 09:15:49;;;;;;;4.82;2.03;;;5.30;99.90;;;;;;4972699;28;20038;-64
2023/12/05 09:18:15;;;;;;;4.65;1.60;;;5.30;99.90;;;;;;4972535;28;20097;-64
2023/12/05 09:20:41;;;;;;;8.23;3.90;;;5.40;99.90;;;;;;4973679;28;20368;-64
2023/12/05 09:23:07;;;;;;;5.95;2.85;;;5.30;99.90;;;;;;4971675;28;20023;-66
2023/12/05 09:25:32;;;;;;;7.72;1.98;;;5.30;99.90;;;;;;4972697;28;20054;-64
2023/12/05 09:27:58;;;;;;;4.28;1.85;;;5.30;99.90;;;;;;4969823;28;20086;-65
2023/12/05 09:30:24;;;;;;;5.22;1.42;;;5.40;99.90;;;;;;4972810;28;20023;-64
2023/12/05 09:32:49;;;;;;;4.00;1.63;;;5.40;99.90;;;;;;4971743;28;20446;-64
2023/12/05 09:35:15;;;;;;;3.20;1.33;;;5.40;99.90;;;;;;4972248;28;20062;-65
2023/12/05 09:37:40;;;;;;;6.65;1.33;;;5.50;99.90;;;;;;4972539;28;20058;-64
2023/12/05 09:40:07;;;;;;;3.67;1.38;;;5.50;99.90;;;;;;4972202;28;20049;-64
2023/12/05 09:42:35;;;;;;;4.53;1.20;;;5.50;99.90;;;;;;4971735;28;20042;-64
2023/12/05 09:45:04;;;;;;;3.55;1.40;;;5.50;99.90;;;;;;4971604;28;20046;-64
2023/12/05 09:47:31;;;;;;;6.13;1.95;;;5.50;99.90;;;;;;4972768;28;20037;-64
2023/12/05 09:49:57;;;;;;;5.82;1.58;;;5.40;99.90;;;;;;4961773;28;20498;-64
2023/12/05 09:52:24;;;;;;;4.45;1.30;;;5.50;99.90;;;;;;4970376;28;20022;-63
2023/12/05 09:54:50;;;;;;;3.72;1.40;;;5.50;99.90;;;;;;4973020;28;20118;-64
2023/12/05 09:57:16;;;;;;;7.05;1.77;;;5.60;99.90;;;;;;4962554;28;20638;-63
2023/12/05 09:59:42;;;;;;;2.85;1.20;;;5.60;99.90;;;;;;4971489;28;20106;-64
2023/12/05 10:02:08;;;;;;;3.95;1.30;;;5.70;99.90;;;;;;4970741;28;20058;-64
2023/12/05 10:04:44;;;;;;;4.97;1.38;;;5.80;99.90;;;;;;4972298;28;20031;-64
2023/12/05 10:07:14;;;;;;;3.17;1.27;;;5.80;99.90;;;;;;4980517;28;20109;-64
2023/12/05 10:09:43;;;;;;;3.90;1.35;;;5.90;99.90;;;;;;4972425;28;20038;-64
2023/12/05 10:12:10;;;;;;;3.23;1.10;;;5.90;99.90;;;;;;4971741;28;20443;-64
2023/12/05 10:14:37;;;;;;;4.00;1.38;;;5.90;99.90;;;;;;4972033;28;20070;-64
2023/12/05 10:17:04;;;;;;;2.65;1.23;;;5.90;99.90;;;;;;4970971;28;20086;-64
2023/12/05 10:19:30;;;;;;;4.55;1.40;;;5.80;99.90;;;;;;4972190;28;20082;-64
2023/12/05 10:21:57;;;;;;;4.35;1.42;;;5.80;99.90;;;;;;4972225;28;20063;-64
2023/12/05 10:24:23;;;;;;;3.50;1.15;;;5.70;99.90;;;;;;4971497;28;20042;-64
2023/12/05 10:26:50;;;;;;;4.57;1.40;;;5.70;99.90;;;;;;4958020;28;20046;-65
2023/12/05 10:29:16;;;;;;;3.20;1.05;;;5.70;99.90;;;;;;4970556;28;20559;-65
2023/12/05 10:31:42;;;;;;;3.78;1.10;;;5.70;99.90;;;;;;4971411;28;20038;-67
2023/12/05 10:34:11;;;;;;;2.55;1.02;;;5.70;99.90;;;;;;4970561;28;20487;-65
2023/12/05 10:36:37;;;;;;;2.60;1.10;;;5.60;99.90;;;;;;4982310;28;20043;-64
2023/12/05 10:39:04;;;;;;;4.63;1.00;;;5.60;99.90;;;;;;4971362;28;20030;-65
2023/12/05 10:41:29;;;;;;;3.35;1.13;;;5.60;99.90;;;;;;4972261;28;20329;-63
2023/12/05 10:43:55;;;;;;;3.08;1.10;;;5.70;99.90;;;;;;4986966;28;20035;-63
2023/12/05 10:46:23;;;;;;;5.38;1.08;;;5.60;99.90;;;;;;4971213;28;20254;-66
2023/12/05 10:48:49;;;;;;;2.55;1.10;;;5.70;99.90;;;;;;4963835;28;20034;-64
2023/12/05 10:51:15;;;;;;;2.95;1.10;;;5.90;99.90;;;;;;4971342;28;20035;-63
2023/12/05 10:53:41;;;;;;;3.33;1.20;;;6.10;99.90;;;;;;4971800;28;20030;-63
2023/12/05 10:56:14;;;;;;;3.72;1.10;;;6.10;99.90;;;;;;4971161;28;20053;-63
2023/12/05 10:58:41;;;;;;;2.08;0.95;;;6.00;99.90;;;;;;4967244;28;20034;-63
2023/12/05 11:01:10;;;;;;;3.08;1.20;;;5.90;99.90;;;;;;4969147;28;20027;-63
2023/12/05 11:03:40;;;;;;;3.55;1.20;;;6.00;99.90;;;;;;4971262;28;20065;-62
2023/12/05 11:06:08;;;;;;;2.85;1.08;;;6.00;99.90;;;;;;4970368;28;20039;-62
2023/12/05 11:08:35;;;;;;;2.63;1.17;;;5.90;99.90;;;;;;4971167;28;20154;-62
2023/12/05 11:11:04;;;;;;;2.97;1.10;;;5.90;99.90;;;;;;4969666;28;20035;-64
2023/12/05 11:13:32;;;;;;;1.90;0.90;;;6.10;99.90;;;;;;4989285;28;20188;-64
2023/12/05 11:16:08;;;;;;;2.70;1.02;;;6.10;99.90;;;;;;4970225;28;20101;-64
2023/12/05 11:18:35;;;;;;;4.20;1.17;;;6.30;99.90;;;;;;4970912;28;20053;-65
2023/12/05 11:21:58;;;;;;;1.65;0.68;;;6.30;99.90;;;;;;4969690;28;20042;-64
2023/12/05 11:24:53;;;;;;;2.60;1.02;;;6.50;99.90;;;;;;4905314;29;20378;-64
2023/12/05 11:27:18;;;;;;;1.75;0.98;;;6.30;99.90;;;;;;4902721;29;20628;-64
2023/12/05 11:30:11;;;;;;;1.98;1.00;;;6.20;99.90;;;;;;4949215;28;20038;-64
2023/12/05 11:32:58;;;;;;;2.38;1.08;;;6.20;99.90;;;;;;4968336;28;20042;-65
2023/12/05 11:35:42;;;;;;;3.72;1.48;;;6.20;99.90;;;;;;4970196;28;20023;-67
2023/12/05 11:38:10;;;;;;;3.22;1.38;;;6.10;99.90;;;;;;4959015;28;20030;-67
2023/12/05 11:40:35;;;;;;;6.50;1.77;;;6.10;99.90;;;;;;4970791;28;20037;-63
2023/12/05 11:43:08;;;;;;;3.10;1.10;;;6.10;99.90;;;;;;4970945;28;20034;-64
2023/12/05 11:45:41;;;;;;;3.53;1.25;;;6.20;99.90;;;;;;4970876;28;20038;-64
2023/12/05 11:48:10;;;;;;;4.10;1.60;;;6.20;99.90;;;;;;4969496;28;20035;-65
2023/12/05 11:50:44;;;;;;;4.50;1.58;;;6.10;99.90;;;;;;4970532;28;20187;-64
2023/12/05 11:53:12;;;;;;;4.10;1.90;;;6.00;99.90;;;;;;4960368;28;20173;-63
2023/12/05 11:55:41;;;;;;;4.32;1.40;;;6.00;99.90;;;;;;4970506;28;20031;-65
2023/12/05 11:58:26;;;;;;;3.53;1.50;;;6.10;99.90;;;;;;4968787;28;20027;-65
2023/12/05 12:01:03;;;;;;;3.25;1.60;;;6.10;99.90;;;;;;4970628;28;20050;-65
2023/12/05 12:03:48;;;;;;;3.50;1.67;;;6.00;99.90;;;;;;4953337;28;20034;-63
2023/12/05 12:06:16;;;;;;;3.92;1.20;;;5.80;99.90;;;;;;4969426;28;20472;-64
2023/12/05 12:08:51;;;;;;;3.00;1.45;;;5.80;99.90;;;;;;4970237;28;20101;-64
2023/12/05 12:11:17;;;;;;;3.92;1.50;;;5.80;99.90;;;;;;4969549;28;20376;-64
2023/12/05 12:13:43;;;;;;;4.43;1.67;;;5.90;99.90;;;;;;4970435;28;20035;-64
2023/12/05 12:16:14;;;;;;;4.85;1.23;;;5.90;99.90;;;;;;4969496;28;20039;-65
2023/12/05 12:18:39;;;;;;;4.18;1.35;;;5.90;99.90;;;;;;4970198;28;20039;-66
2023/12/05 12:21:05;;;;;;;5.28;1.40;;;5.90;99.90;;;;;;4969857;28;20520;-65
2023/12/05 12:23:32;;;;;;;3.45;1.50;;;5.80;99.90;;;;;;4969330;28;20038;-65
2023/12/05 12:26:00;;;;;;;4.80;1.20;;;5.80;99.90;;;;;;4979824;28;20061;-65
2023/12/05 12:28:33;;;;;;;2.50;1.00;;;5.90;99.90;;;;;;4988882;28;20452;-68
2023/12/05 12:30:59;;;;;;;3.80;1.50;;;5.90;99.90;;;;;;4981964;28;20105;-65
2023/12/05 12:33:41;;;;;;;2.95;1.30;;;5.90;99.90;;;;;;4982907;28;20027;-68
2023/12/05 12:36:11;;;;;;;4.88;1.20;;;6.20;99.90;;;;;;4972361;28;20066;-62
2023/12/05 12:38:38;;;;;;;4.40;1.20;;;6.30;99.90;;;;;;4982318;28;20047;-66
2023/12/05 12:41:04;;;;;;;3.95;1.25;;;6.60;99.90;;;;;;4973050;28;20499;-65
2023/12/05 12:43:30;;;;;;;2.75;0.93;;;6.60;99.90;;;;;;4981129;28;20538;-62
2023/12/05 12:45:56;;;;;;;3.25;1.17;;;6.50;99.90;;;;;;4956784;28;20038;-63
2023/12/05 12:48:22;;;;;;;1.80;0.98;;;6.60;99.90;;;;;;4976334;28;20040;-64
2023/12/05 12:50:48;;;;;;;1.70;0.93;;;6.60;99.90;;;;;;4971050;28;20113;-65